CPX991 Details

Departure: Schiphol International Airport (EHAM)
Arrival: Liège Airport (EBLG) at N/A
Notes: EMPTY | NON-REVENUE REPOSITIONING LEG


Current Weather Information
EHAM 171625Z 25013KT 220V290 9999 FEW020 20/14 Q1005 NOSIG
EBLG 171620Z 19011KT 4500 -RA FEW007 BKN010 18/17 Q1009 TEMPO 4000 BKN008